Aérodrome :
LOGIN :

S'inscrire | Disclaimer

   EN    FR    IT 

 










Légende :    VFR   VFR Marginal   IFR   IFR Intensif   IFR Très Intensif
Visi : 
Plafond : 
>= 8 km
>= 3000ft
5 à 8 km
1000 à 3000 ft
1500m à 5 km
500 à 1000 ft
800 à 1500m
200 à 500 ft
< 800m
< 200 ft
Symboles :   Orages  Brouillard  Fortes neiges  Fortes précipitations  Vent > 20 kt
SIGMETs :   Divers  Orages  Givrage  Turbulence  Onde Orograph.  Cendres Volcan.






- Altitude de l'aérodrome : 568 ft


UUMO - Ostafyevo International

DERNIER METAR :
  • 210530Z 17001MPS 9999 NSC M02/M02 Q1021 R26/090060 NOSIG RMK QFE750/1000

METARs EXPIRÉS :
  • 210500Z 18001MPS 7000 NSC M02/M02 Q1020 R26/090060 NOSIG RMK QFE750/1000
  • 210430Z 17001MPS 8000 NSC M02/M02 Q1020 R26/090060 NOSIG RMK QFE750/1000
  • 210400Z 17001MPS 6000 NSC M02/M02 Q1020 R26/090060 NOSIG RMK QFE750/1000
  • 210330Z 16001MPS CAVOK M02/M02 Q1020 R26/090060 NOSIG RMK QFE750/1000
  • 210300Z 16001MPS CAVOK M02/M02 Q1020 R26/090060 NOSIG RMK QFE750/1000

TAF TAF UUMO
Valide du 21 à 03h jusqu'au 21 à 12h UTC


210158Z 2103/2112 VRB01MPS 7000 NSC
PROB40
TEMPO 2103/2108 0500 FG SCT002
FM210800 22005MPS 9999 SCT020



MET'MAP, la Météo Aéronautique d'un coup d'oeil ! - Copyright ORBIFLY Décembre 2007 - Disclaimer

ORBIFLY MET'MAP TEAM :

Programmation & Développement : Alexandra Zaïnal
Sur une idée originale de : Baudouin d'Aumeries
Assistance à la programmation : Marc-Olivier Méhu
Soutien technique & logistique : Manuel Goepfert

Contact : metmap@orbifly.com




SOURCES & CREDITS :

   NOAA